KSTL/STL METAR and TAF weather

Enter ICAO airport designator
Station Type Date Time Source
KSTL METAR 2022/06/27 08:51 UTC NOAA

KSTL 270851Z 00000KT 10SM CLR 19/11 A3024 RMK AO2 SLP229 T01940106 57002 $


Station Type Date Time Source
KSTL Decoded METAR 2022/06/27 08:51 UTC NOAA

LAMBERT-ST LOUIS INTERNATIONAL AIRPORT , MO, United States (KSTL) 38-45N 90-22W 171M
Jun 27, 2022 - 04:51 AM EDT / 2022.06.27 0851 UTC
Wind: Calm:0
Visibility: 10 mile(s):0
Sky conditions: clear
Temperature: 66.9 F (19.4 C)
Dew Point: 51.1 F (10.6 C)
Relative Humidity: 56%
Pressure (altimeter): 30.24 in. Hg (1024 hPa)
Pressure tendency: 0.01 inches (0.2 hPa) lower than three hours ago
ob: KSTL 270851Z 00000KT 10SM CLR 19/11 A3024 RMK AO2 SLP229 T01940106 57002
cycle: 9

Station Type Date Time Source
KSTL TAF 2022/06/27 06:22 UTC NOAA

TAF KSTL 270520Z 2706/2812 34005KT P6SM SCT250

Example: see airport list